Time;durP1;ratioP1;P1;durP2;ratioP2;P2;SDS_P1;SDS_P2;PMS_P1;PMS_P2;Temp;Humidity;BMP_temperature;BMP_pressure;BME280_temperature;BME280_humidity;BME280_pressure;Samples;Min_cycle;Max_cycle;Signal;HPM_P1;HPM_P2
2022/07/03 00:01:28;;;;;;;0.10;0.10;;;;;;;22.15;52.91;101340.25;5128304;28;20070;-43
2022/07/03 00:03:54;;;;;;;0.10;0.10;;;;;;;22.16;52.88;101342.78;5128136;27;20042;-43
2022/07/03 00:06:19;;;;;;;0.10;0.10;;;;;;;22.15;53.02;101337.50;5130401;27;20047;-43
2022/07/03 00:08:45;;;;;;;0.10;0.10;;;;;;;22.16;52.98;101336.41;5128511;27;20051;-43
2022/07/03 00:11:11;;;;;;;0.10;0.10;;;;;;;22.15;52.99;101338.34;5129748;27;20046;-43
2022/07/03 00:13:37;;;;;;;0.10;0.10;;;;;;;22.15;52.91;101341.13;5118037;28;20084;-43
2022/07/03 00:16:03;;;;;;;0.10;0.10;;;;;;;22.15;52.91;101341.13;5132013;27;21140;-43
2022/07/03 00:18:28;;;;;;;0.10;0.10;;;;;;;22.17;53.04;101346.38;5132006;28;20477;-43
2022/07/03 00:21:00;;;;;;;0.10;0.10;;;;;;;22.17;52.89;101340.81;5134955;27;20068;-43
2022/07/03 00:23:29;;;;;;;0.10;0.10;;;;;;;22.17;52.75;101346.38;5119013;28;20096;-43
2022/07/03 00:25:55;;;;;;;0.10;0.10;;;;;;;22.16;52.96;101351.09;5114302;28;20449;-43
2022/07/03 00:28:22;;;;;;;0.10;0.10;;;;;;;22.16;52.98;101351.09;5131298;27;20098;-43
2022/07/03 00:30:48;;;;;;;0.10;0.10;;;;;;;22.16;53.03;101359.41;5130137;28;20059;-43
2022/07/03 00:33:14;;;;;;;0.10;0.10;;;;;;;22.16;52.97;101353.88;5116300;28;20063;-43
2022/07/03 00:35:42;;;;;;;0.10;0.10;;;;;;;22.17;52.88;101363.00;5132128;28;20070;-42
2022/07/03 00:38:10;;;;;;;0.10;0.10;;;;;;;22.16;53.00;101361.38;5112965;27;20461;-43
2022/07/03 00:40:36;;;;;;;;;;;;;;;22.15;53.02;101351.38;5132208;27;20078;-43
2022/07/03 00:43:03;;;;;;;0.10;0.10;;;;;;;22.15;52.97;101341.13;5131769;27;19919;-43
2022/07/03 00:45:32;;;;;;;0.10;0.10;;;;;;;22.16;52.97;101344.72;5112552;28;20086;-43
2022/07/03 00:47:58;;;;;;;0.10;0.10;;;;;;;22.15;52.96;101330.03;5130211;27;20066;-43
2022/07/03 00:50:25;;;;;;;0.10;0.10;;;;;;;22.16;53.06;101333.63;5132428;28;20039;-43
2022/07/03 00:52:52;;;;;;;0.10;0.10;;;;;;;22.15;52.91;101330.03;5113603;28;20126;-41
2022/07/03 00:55:18;;;;;;;0.10;0.10;;;;;;;22.16;52.89;101328.06;5131533;28;20559;-41
2022/07/03 00:57:46;;;;;;;0.10;0.10;;;;;;;22.16;52.95;101319.75;5113629;28;20090;-40
2022/07/03 01:00:14;;;;;;;0.10;0.10;;;;;;;22.16;52.92;101319.75;5131277;28;20074;-41
2022/07/03 01:05:28;;;;;;;0.10;0.10;;;;;;;22.16;53.03;101311.44;5162048;27;20126;-39
2022/07/03 01:08:22;;;;;;;0.10;0.10;;;;;;;22.16;53.00;101315.03;5138951;27;20129;-39
2022/07/03 01:14:14;;;;;;;0.10;0.10;;;;;;;22.15;52.96;101304.22;5161395;27;20113;-40
2022/07/03 01:17:05;;;;;;;0.10;0.10;;;;;;;22.16;52.94;101311.44;5133380;27;20093;-40
2022/07/03 01:19:48;;;;;;;0.10;0.10;;;;;;;22.15;52.98;101305.06;5167510;27;20469;-39
2022/07/03 01:22:23;;;;;;;0.10;0.10;;;;;;;22.17;53.05;101311.13;5144155;27;20070;-39
2022/07/03 01:25:10;;;;;;;0.10;0.10;;;;;;;22.15;53.04;101307.84;5142151;27;20121;-41
2022/07/03 01:27:47;;;;;;;0.10;0.10;;;;;;;22.15;52.93;101307.84;5128455;27;20082;-41
2022/07/03 01:30:13;;;;;;;0.10;0.10;;;;;;;22.16;52.96;101305.88;5163692;27;20078;-40
2022/07/03 01:32:54;;;;;;;0.10;0.10;;;;;;;22.15;53.09;101304.22;5161273;27;20478;-39
2022/07/03 01:35:24;;;;;;;0.10;0.10;;;;;;;22.16;53.06;101297.56;5161734;27;20085;-39
2022/07/03 01:37:50;;;;;;;0.10;0.10;;;;;;;22.16;52.95;101294.78;5145222;27;20081;-39
2022/07/03 01:40:17;;;;;;;0.10;0.10;;;;;;;22.14;53.09;101291.47;5166765;27;20089;-40
2022/07/03 01:42:44;;;;;;;0.10;0.10;;;;;;;22.16;52.99;101300.34;5163278;27;20505;-40
2022/07/03 01:45:12;;;;;;;0.10;0.10;;;;;;;22.16;52.99;101298.38;5132023;27;20130;-41
2022/07/03 01:47:41;;;;;;;0.10;0.10;;;;;;;22.16;53.01;101311.44;5151676;27;20131;-39
2022/07/03 01:50:10;;;;;;;0.10;0.10;;;;;;;22.16;52.91;101303.94;5155908;27;20078;-41
2022/07/03 01:52:37;;;;;;;0.10;0.10;;;;;;;22.17;52.99;101307.53;5151895;27;20086;-39
2022/07/03 01:55:13;;;;;;;0.10;0.10;;;;;;;22.16;52.99;101308.66;5138923;27;20129;-39
2022/07/03 01:57:48;;;;;;;0.10;0.10;;;;;;;22.16;53.05;101306.72;5148452;27;20075;-39
2022/07/03 02:00:17;;;;;;;0.10;0.10;;;;;;;22.17;52.98;101301.97;5151664;27;20124;-39
2022/07/03 02:02:54;;;;;;;0.10;0.10;;;;;;;22.16;53.00;101297.56;5132770;27;20074;-39
2022/07/03 02:05:42;;;;;;;0.10;0.10;;;;;;;22.15;53.08;101299.50;5155155;27;20071;-39
2022/07/03 02:08:15;;;;;;;0.10;0.10;;;;;;;22.15;53.12;101299.50;5141381;27;20078;-39
2022/07/03 02:10:46;;;;;;;0.10;0.10;;;;;;;22.16;53.00;101294.78;5155514;27;20356;-39
2022/07/03 02:13:17;;;;;;;0.10;0.10;;;;;;;22.17;53.07;101290.88;5152546;27;20386;-39
2022/07/03 02:15:45;;;;;;;0.10;0.10;;;;;;;22.16;52.88;101292.00;5132387;27;20071;-39
2022/07/03 02:18:23;;;;;;;0.10;0.10;;;;;;;22.16;53.00;101287.28;5129027;27;20070;-40
2022/07/03 02:20:56;;;;;;;0.10;0.10;;;;;;;22.15;53.04;101285.66;5152519;27;20101;-39
2022/07/03 02:23:24;;;;;;;0.10;0.10;;;;;;;22.15;53.00;101284.78;5130759;27;20136;-39
2022/07/03 02:25:51;;;;;;;0.10;0.10;;;;;;;22.16;53.05;101287.28;5139204;27;20485;-39
2022/07/03 02:28:37;;;;;;;0.10;0.10;;;;;;;22.15;52.92;101285.66;5124254;27;20074;-37
2022/07/03 02:31:05;;;;;;;0.20;0.20;;;;;;;22.16;52.91;101287.28;5137812;27;20135;-38
2022/07/03 02:33:31;;;;;;;0.10;0.10;;;;;;;22.15;52.90;101290.34;5135270;27;20047;-39
2022/07/03 02:35:57;;;;;;;0.10;0.10;;;;;;;22.15;52.96;101288.41;5122785;27;20154;-39
2022/07/03 02:38:24;;;;;;;0.10;0.10;;;;;;;22.15;53.02;101290.34;5121112;27;20079;-39
2022/07/03 02:41:14;;;;;;;0.10;0.10;;;;;;;22.16;52.95;101290.06;5137723;27;20174;-38
2022/07/03 02:49:33;;;;;;;0.10;0.10;;;;;;;22.16;53.03;101295.63;5167532;27;20156;-41
2022/07/03 02:52:12;;;;;;;0.10;0.10;;;;;;;22.16;52.96;101292.84;5133887;27;20100;-40
2022/07/03 02:54:44;;;;;;;0.10;0.10;;;;;;;22.16;53.00;101297.56;5165756;27;20483;-41
2022/07/03 02:57:10;;;;;;;0.10;0.10;;;;;;;22.15;53.06;101302.28;5162716;27;20098;-40
2022/07/03 03:00:04;;;;;;;0.10;0.10;;;;;;;22.15;53.00;101296.75;5148512;27;20045;-40
2022/07/03 03:02:52;;;;;;;0.10;0.10;;;;;;;22.17;52.98;101299.22;5150874;27;20057;-40
2022/07/03 03:05:25;;;;;;;0.10;0.10;;;;;;;22.17;52.97;101293.66;5149365;27;20070;-39
2022/07/03 03:08:12;;;;;;;0.10;0.10;;;;;;;22.17;53.00;101293.66;5165409;27;20465;-40
2022/07/03 03:10:39;;;;;;;0.10;0.10;;;;;;;22.16;53.01;101292.00;5146703;27;20035;-41
2022/07/03 03:13:08;;;;;;;0.10;0.10;;;;;;;22.15;53.00;101291.19;5163375;27;20082;-41
2022/07/03 03:15:36;;;;;;;0.10;0.10;;;;;;;22.16;53.03;101292.00;5128921;27;20163;-41
2022/07/03 03:18:05;;;;;;;0.10;0.10;;;;;;;22.16;53.04;101292.84;5144728;27;20042;-39
2022/07/03 03:20:35;;;;;;;0.10;0.10;;;;;;;22.16;52.91;101298.38;5167589;27;20365;-41
2022/07/03 03:23:10;;;;;;;0.10;0.10;;;;;;;22.16;52.99;101300.34;5165112;27;20078;-40
2022/07/03 03:25:36;;;;;;;0.10;0.10;;;;;;;22.16;52.99;101305.88;5160806;27;20073;-40
2022/07/03 03:28:02;;;;;;;0.10;0.10;;;;;;;22.18;53.03;101304.44;5143949;27;20141;-41
2022/07/03 03:30:28;;;;;;;0.10;0.10;;;;;;;22.17;53.00;101305.59;5147328;27;20034;-39
2022/07/03 03:32:54;;;;;;;0.10;0.10;;;;;;;22.17;52.99;101307.53;5164895;27;20098;-39
2022/07/03 03:35:19;;;;;;;0.10;0.10;;;;;;;22.16;53.09;101309.47;5147353;27;20065;-40
2022/07/03 03:37:45;;;;;;;0.10;0.10;;;;;;;22.16;52.92;101312.25;5146049;27;20050;-39
2022/07/03 03:40:11;;;;;;;0.10;0.10;;;;;;;22.17;52.99;101311.13;5162233;27;20070;-40
2022/07/03 03:42:37;;;;;;;0.10;0.10;;;;;;;22.16;53.03;101314.22;5166744;27;20082;-39
2022/07/03 03:45:03;;;;;;;0.20;0.20;;;;;;;22.17;53.17;101316.69;5167480;27;20053;-36
2022/07/03 03:47:29;;;;;;;0.10;0.10;;;;;;;22.15;52.97;101313.38;5144858;27;20129;-39
2022/07/03 03:49:55;;;;;;;0.10;0.10;;;;;;;22.17;53.04;101318.63;5167594;27;20056;-41
2022/07/03 03:52:20;;;;;;;0.10;0.10;;;;;;;22.16;53.07;101317.81;5165682;27;20038;-37
2022/07/03 03:54:46;;;;;;;0.10;0.10;;;;;;;22.16;53.08;101315.03;5166846;27;20042;-39
2022/07/03 03:57:21;;;;;;;0.10;0.10;;;;;;;22.15;52.96;101316.16;5166959;27;20042;-39
2022/07/03 03:59:47;;;;;;;0.10;0.10;;;;;;;22.15;53.16;101320.84;5138734;27;20074;-39
2022/07/03 04:02:13;;;;;;;0.10;0.10;;;;;;;22.16;53.05;101322.53;5152847;27;20046;-39
2022/07/03 04:04:39;;;;;;;0.10;0.10;;;;;;;22.17;53.14;101321.41;5138418;27;20038;-39
2022/07/03 04:07:05;;;;;;;0.10;0.10;;;;;;;22.16;53.09;101323.34;5151633;27;20421;-37
2022/07/03 04:09:30;;;;;;;0.10;0.10;;;;;;;22.16;52.97;101326.13;5152766;27;20042;-39
2022/07/03 04:11:57;;;;;;;0.10;0.10;;;;;;;22.17;53.00;101349.97;5152425;27;20034;-40
2022/07/03 04:14:22;;;;;;;0.10;0.10;;;;;;;22.17;53.03;101344.41;5153273;27;20074;-41
2022/07/03 04:16:48;;;;;;;0.10;0.10;;;;;;;22.15;53.07;101343.91;5123596;27;20061;-41
2022/07/03 04:19:13;;;;;;;0.10;0.10;;;;;;;22.16;53.11;101345.53;5153708;27;20039;-40
2022/07/03 04:21:39;;;;;;;0.10;0.10;;;;;;;22.17;52.99;101343.59;5153855;27;20392;-39
2022/07/03 04:24:05;;;;;;;0.10;0.10;;;;;;;22.16;53.21;101344.72;5152776;27;20046;-40
2022/07/03 04:26:31;;;;;;;0.10;0.10;;;;;;;22.17;53.11;101343.59;5150774;27;20042;-39
2022/07/03 04:28:56;;;;;;;0.10;0.10;;;;;;;22.17;53.05;101351.91;5152347;27;20045;-39
2022/07/03 04:31:22;;;;;;;0.10;0.10;;;;;;;22.16;53.13;101341.94;5151303;27;20054;-39
2022/07/03 04:33:48;;;;;;;0.10;0.10;;;;;;;22.17;53.13;101338.03;5149474;27;21012;-39
2022/07/03 04:36:14;;;;;;;0.10;0.10;;;;;;;22.17;52.91;101344.41;5152149;27;20079;-40
2022/07/03 04:38:40;;;;;;;0.10;0.10;;;;;;;22.15;53.22;101346.66;5150571;27;20092;-36
2022/07/03 04:41:06;;;;;;;0.10;0.10;;;;;;;22.15;53.13;101349.44;5152525;27;20094;-41
2022/07/03 04:43:31;;;;;;;0.10;0.10;;;;;;;22.15;53.01;101343.03;5151475;27;20038;-41
2022/07/03 04:45:57;;;;;;;0.10;0.10;;;;;;;22.16;53.26;101353.03;5152459;27;20045;-40
2022/07/03 04:48:23;;;;;;;0.10;0.10;;;;;;;22.17;52.86;101349.16;5151559;27;20051;-40
2022/07/03 04:50:48;;;;;;;0.10;0.10;;;;;;;22.16;53.12;101351.09;5152683;27;20035;-40
2022/07/03 04:53:14;;;;;;;0.10;0.10;;;;;;;22.17;52.97;101351.91;5152174;27;20061;-40
2022/07/03 04:55:39;;;;;;;0.10;0.10;;;;;;;22.16;53.00;101356.63;5149577;27;20400;-39
2022/07/03 04:58:05;;;;;;;0.10;0.10;;;;;;;22.16;53.09;101347.50;5151369;27;20046;-40
2022/07/03 05:00:31;;;;;;;0.10;0.10;;;;;;;22.15;52.95;101355.00;5152718;27;20039;-39
2022/07/03 05:02:57;;;;;;;0.10;0.10;;;;;;;22.15;53.13;101343.91;5152223;27;20380;-40
2022/07/03 05:05:23;;;;;;;0.10;0.10;;;;;;;22.16;53.07;101353.03;5152695;27;20046;-40
2022/07/03 05:07:49;;;;;;;0.10;0.10;;;;;;;22.16;53.11;101353.88;5150871;27;20515;-41
2022/07/03 05:10:15;;;;;;;0.10;0.10;;;;;;;22.15;53.02;101355.00;5151630;27;20067;-39
2022/07/03 05:12:40;;;;;;;0.10;0.10;;;;;;;22.16;53.05;101361.38;5150681;27;20043;-39
2022/07/03 05:15:08;;;;;;;0.10;0.10;;;;;;;22.16;53.04;101361.38;5152166;27;20077;-39
2022/07/03 05:17:33;;;;;;;0.10;0.10;;;;;;;22.15;53.08;101357.75;5131680;27;20503;-39
2022/07/03 05:20:30;;;;;;;0.10;0.10;;;;;;;22.16;52.83;101361.38;5135751;27;20503;-40
2022/07/03 05:22:44;;;;;;;0.20;0.20;;;;;;;22.16;53.06;101369.69;5137387;27;20072;-41
2022/07/03 05:25:10;;;;;;;0.10;0.10;;;;;;;22.16;52.99;101380.78;5152155;27;20035;-39
2022/07/03 05:27:37;;;;;;;0.10;0.10;;;;;;;22.16;53.09;101381.59;5150647;27;20043;-40
2022/07/03 05:30:03;;;;;;;0.10;0.10;;;;;;;22.16;53.00;101378.00;5134137;27;20523;-38
2022/07/03 05:32:28;;;;;;;0.10;0.10;;;;;;;22.16;53.04;101386.34;5150585;27;20043;-41
2022/07/03 05:34:54;;;;;;;0.10;0.10;;;;;;;22.17;53.05;101387.97;5151904;27;20038;-38
2022/07/03 05:37:20;;;;;;;0.10;0.10;;;;;;;22.15;52.97;101399.38;5150965;27;20045;-41
2022/07/03 05:39:45;;;;;;;0.10;0.10;;;;;;;22.14;53.01;101397.69;5151947;27;20071;-40
2022/07/03 05:42:11;;;;;;;0.10;0.10;;;;;;;22.15;53.01;101396.59;5151520;27;20488;-39
2022/07/03 05:44:37;;;;;;;0.10;0.10;;;;;;;22.15;53.05;101388.28;5151384;27;20497;-41
2022/07/03 05:47:03;;;;;;;0.10;0.10;;;;;;;22.16;53.11;101386.34;5149083;27;20367;-39
2022/07/03 05:49:28;;;;;;;0.10;0.10;;;;;;;22.16;53.01;101391.88;5151011;27;20043;-39
2022/07/03 05:51:54;;;;;;;0.10;0.10;;;;;;;22.17;52.99;101387.97;5151604;27;20043;-38
2022/07/03 05:54:20;;;;;;;0.10;0.10;;;;;;;22.15;53.07;101390.19;5151374;27;20045;-39
2022/07/03 05:56:45;;;;;;;0.10;0.10;;;;;;;22.15;53.16;101392.97;5151268;27;20151;-39
2022/07/03 05:59:11;;;;;;;0.10;0.10;;;;;;;22.15;52.85;101390.19;5151406;27;20046;-39
2022/07/03 06:01:37;;;;;;;0.10;0.10;;;;;;;22.16;53.11;101389.09;5150684;27;20426;-39
2022/07/03 06:04:03;;;;;;;0.10;0.10;;;;;;;22.16;52.99;101389.09;5151217;27;20039;-39
2022/07/03 06:06:29;;;;;;;0.20;0.20;;;;;;;22.15;53.02;101391.06;5134237;27;20486;-39
2022/07/03 06:08:54;;;;;;;0.10;0.10;;;;;;;22.15;53.01;101385.50;5150194;27;20043;-41
2022/07/03 06:11:21;;;;;;;0.13;0.13;;;;;;;22.16;53.07;101394.66;5149873;27;20650;-39
2022/07/03 06:13:46;;;;;;;0.10;0.10;;;;;;;22.16;53.13;101397.44;5151403;27;20082;-39
2022/07/03 06:16:12;;;;;;;0.10;0.10;;;;;;;22.16;53.09;101398.25;5150422;27;20034;-39
2022/07/03 06:18:38;;;;;;;0.10;0.10;;;;;;;22.17;53.05;101404.63;5147800;27;20050;-38
2022/07/03 06:21:03;;;;;;;0.10;0.10;;;;;;;22.17;53.08;101407.41;5150407;27;20047;-39
2022/07/03 06:23:29;;;;;;;0.13;0.13;;;;;;;22.15;53.00;101413.25;5149747;27;20051;-40
2022/07/03 06:26:11;;;;;;;0.10;0.10;;;;;;;22.14;53.09;101406.03;5150808;27;20070;-39
2022/07/03 06:28:37;;;;;;;0.10;0.10;;;;;;;22.15;53.15;101410.47;5133919;27;20046;-39
2022/07/03 06:31:02;;;;;;;0.10;0.10;;;;;;;22.16;52.97;101412.13;5130190;27;20118;-37
2022/07/03 06:33:28;;;;;;;0.10;0.10;;;;;;;22.15;52.99;101407.69;5150881;27;20053;-39
2022/07/03 06:35:54;;;;;;;0.10;0.10;;;;;;;22.16;52.92;101408.53;5151527;27;20430;-39
2022/07/03 06:38:19;;;;;;;0.10;0.10;;;;;;;22.16;53.07;101409.34;5149089;27;20161;-40
2022/07/03 06:40:45;;;;;;;0.10;0.10;;;;;;;22.16;52.99;101412.13;5151024;27;20159;-40
2022/07/03 06:43:11;;;;;;;0.10;0.10;;;;;;;22.15;52.80;101415.16;5149519;27;20050;-38
2022/07/03 06:45:36;;;;;;;0.10;0.10;;;;;;;22.16;53.09;101416.84;5151180;27;20035;-39
2022/07/03 06:48:02;;;;;;;0.10;0.10;;;;;;;22.16;53.01;101420.44;5147540;27;21537;-40
2022/07/03 06:50:28;;;;;;;0.10;0.10;;;;;;;22.15;53.09;101426.25;5150161;27;20392;-39
2022/07/03 06:52:53;;;;;;;0.10;0.10;;;;;;;22.15;53.01;101415.16;5147307;27;20047;-38
2022/07/03 06:55:19;;;;;;;0.10;0.10;;;;;;;22.16;53.14;101414.06;5150720;27;20177;-40
2022/07/03 06:57:45;;;;;;;0.10;0.10;;;;;;;22.16;53.05;101423.22;5149816;27;20145;-39
2022/07/03 07:00:11;;;;;;;0.10;0.10;;;;;;;22.15;53.02;101418.78;5151259;27;21207;-39
2022/07/03 07:02:36;;;;;;;0.10;0.10;;;;;;;22.16;53.07;101414.91;5150495;27;20086;-38
2022/07/03 07:05:03;;;;;;;0.10;0.10;;;;;;;22.15;53.13;101423.50;5150465;27;20065;-39
2022/07/03 07:07:28;;;;;;;0.10;0.10;;;;;;;22.15;52.92;101415.16;5132682;27;20549;-39
2022/07/03 07:09:54;;;;;;;0.10;0.10;;;;;;;22.14;53.07;101422.66;5151065;27;20042;-39
2022/07/03 07:12:20;;;;;;;0.10;0.10;;;;;;;22.15;53.06;101409.63;5149264;27;20039;-39
2022/07/03 07:14:45;;;;;;;0.10;0.10;;;;;;;22.15;52.91;101407.69;5132348;27;20106;-39
2022/07/03 07:17:11;;;;;;;0.10;0.10;;;;;;;22.16;53.00;101408.53;5130328;27;20045;-39
2022/07/03 07:19:37;;;;;;;0.10;0.10;;;;;;;22.15;52.93;101407.69;5149459;27;20043;-38
2022/07/03 07:22:02;;;;;;;0.10;0.10;;;;;;;22.14;52.94;101407.97;5148839;27;20046;-39
2022/07/03 07:24:28;;;;;;;0.10;0.10;;;;;;;22.15;52.90;101409.63;5150399;27;20042;-39
2022/07/03 07:26:54;;;;;;;0.10;0.10;;;;;;;22.17;53.06;101412.94;5148989;27;20049;-40
2022/07/03 07:29:20;;;;;;;0.10;0.10;;;;;;;22.14;52.92;101411.56;5150243;27;20050;-39
2022/07/03 07:31:46;;;;;;;0.10;0.10;;;;;;;22.16;53.05;101414.91;5135907;27;20054;-41
2022/07/03 07:34:11;;;;;;;0.10;0.10;;;;;;;22.16;53.06;101425.16;5132300;27;20115;-39
2022/07/03 07:36:37;;;;;;;0.10;0.10;;;;;;;22.15;52.85;101421.56;5152235;27;20045;-39
2022/07/03 07:39:03;;;;;;;0.10;0.10;;;;;;;22.16;52.80;101422.41;5119400;27;20039;-38
2022/07/03 07:41:29;;;;;;;0.10;0.10;;;;;;;22.17;52.86;101429.59;5153228;27;20047;-39
2022/07/03 07:43:54;;;;;;;0.10;0.10;;;;;;;22.16;52.97;101423.22;5152070;27;20473;-37
2022/07/03 07:46:20;;;;;;;0.10;0.10;;;;;;;22.15;53.04;101429.03;5153829;27;20400;-40
2022/07/03 07:48:46;;;;;;;0.10;0.10;;;;;;;22.15;53.02;101429.88;5135634;27;20039;-41
2022/07/03 07:51:11;;;;;;;0.10;0.10;;;;;;;22.16;52.96;101427.94;5152834;27;20053;-40
2022/07/03 07:53:37;;;;;;;0.10;0.10;;;;;;;22.14;52.85;101422.66;5151925;27;20053;-38
2022/07/03 07:56:03;;;;;;;0.10;0.10;;;;;;;22.16;53.00;101423.22;5153963;27;20055;-40
2022/07/03 07:58:29;;;;;;;0.10;0.10;;;;;;;22.16;53.15;101419.63;5152558;27;20038;-40
2022/07/03 08:06:26;;;;;;;0.10;0.10;;;;;;;22.15;53.01;101418.78;5138613;27;20095;-39
2022/07/03 08:08:51;;;;;;;0.10;0.10;;;;;;;22.16;52.95;101425.16;5152787;27;20034;-39
2022/07/03 08:11:17;;;;;;;0.10;0.10;;;;;;;22.16;52.94;101422.41;5151793;27;20046;-39
2022/07/03 08:13:43;;;;;;;0.10;0.10;;;;;;;22.14;53.02;101422.66;5152239;27;20039;-39
2022/07/03 08:16:09;;;;;;;0.10;0.10;;;;;;;22.15;53.02;101424.34;5152974;27;20042;-39
2022/07/03 08:18:35;;;;;;;0.10;0.10;;;;;;;22.14;52.98;101422.66;5151389;27;20063;-38
2022/07/03 08:21:01;;;;;;;0.10;0.10;;;;;;;22.16;53.00;101430.72;5149935;27;20035;-41
2022/07/03 08:23:26;;;;;;;0.10;0.10;;;;;;;22.17;52.84;101426.81;5149997;27;20050;-39
2022/07/03 08:25:52;;;;;;;0.10;0.10;;;;;;;22.14;52.93;101425.44;5150513;27;20042;-39
2022/07/03 08:28:17;;;;;;;0.10;0.10;;;;;;;22.15;53.01;101426.25;5136672;27;20047;-37
2022/07/03 08:30:44;;;;;;;0.10;0.10;;;;;;;22.16;53.07;101419.63;5152537;27;20045;-38
2022/07/03 08:33:10;;;;;;;0.10;0.10;;;;;;;22.15;53.00;101429.03;5151394;27;20077;-39
2022/07/03 08:35:36;;;;;;;0.10;0.10;;;;;;;22.15;53.01;101427.13;5135403;27;20397;-40
2022/07/03 08:38:02;;;;;;;0.10;0.10;;;;;;;22.15;52.99;101427.13;5133107;27;20053;-36
2022/07/03 08:40:27;;;;;;;0.10;0.10;;;;;;;22.16;53.03;101433.50;5151690;27;20486;-40
2022/07/03 08:42:56;;;;;;;0.10;0.10;;;;;;;22.15;52.96;101429.88;5151169;27;20046;-39
2022/07/03 08:45:22;;;;;;;;;;;;;;;22.16;52.98;101428.75;5152145;27;20088;-39
2022/07/03 08:47:49;;;;;;;0.10;0.10;;;;;;;22.15;53.05;101429.03;5133123;27;20026;-39
2022/07/03 08:50:16;;;;;;;0.10;0.10;;;;;;;22.15;52.91;101426.25;5152641;27;20552;-39
2022/07/03 08:52:42;;;;;;;0.10;0.10;;;;;;;22.14;52.96;101428.22;5136106;27;20066;-39
2022/07/03 08:55:09;;;;;;;0.10;0.10;;;;;;;22.15;52.93;101429.03;5150722;27;20070;-39
2022/07/03 08:57:37;;;;;;;0.10;0.10;;;;;;;22.16;53.09;101430.72;5133456;27;20074;-38
2022/07/03 09:00:05;;;;;;;0.10;0.10;;;;;;;22.14;52.98;101425.44;5152697;27;20133;-38
2022/07/03 09:02:31;;;;;;;0.10;0.10;;;;;;;22.14;53.05;101422.66;5131301;27;20479;-39
2022/07/03 09:04:58;;;;;;;0.10;0.10;;;;;;;22.15;53.00;101424.34;5149655;27;20046;-39
2022/07/03 09:07:26;;;;;;;0.10;0.10;;;;;;;22.16;53.03;101427.94;5152109;27;20070;-41
2022/07/03 09:09:52;;;;;;;0.10;0.10;;;;;;;22.16;52.95;101428.75;5151908;27;20066;-39
2022/07/03 09:12:18;;;;;;;0.10;0.10;;;;;;;22.15;53.07;101434.59;5151462;27;20046;-39
2022/07/03 09:14:43;;;;;;;0.10;0.10;;;;;;;22.15;53.01;101427.13;5151644;27;20070;-39
2022/07/03 09:17:10;;;;;;;0.10;0.10;;;;;;;22.16;52.95;101428.75;5148138;27;20043;-39
2022/07/03 09:19:51;;;;;;;0.10;0.10;;;;;;;22.15;53.00;101432.66;5151208;27;20481;-41
2022/07/03 09:22:28;;;;;;;0.10;0.10;;;;;;;22.15;52.92;101424.34;5149364;27;20485;-38
2022/07/03 09:25:05;;;;;;;0.10;0.10;;;;;;;22.14;53.05;101425.44;5149670;27;20079;-39
2022/07/03 09:27:31;;;;;;;0.10;0.10;;;;;;;22.15;53.16;101429.88;5133262;27;20198;-38
2022/07/03 09:30:02;;;;;;;0.10;0.10;;;;;;;22.15;52.99;101435.44;5132967;27;20671;-38
2022/07/03 09:32:44;;;;;;;0.10;0.10;;;;;;;22.14;52.96;101428.22;5132772;27;20039;-39
2022/07/03 09:35:26;;;;;;;0.10;0.10;;;;;;;22.15;52.95;101434.59;5140064;27;20077;-40
2022/07/03 09:37:57;;;;;;;0.10;0.10;;;;;;;22.16;53.06;101430.72;5135444;27;20426;-39
2022/07/03 09:40:25;;;;;;;0.20;0.20;;;;;;;22.15;53.02;101426.25;5151626;27;20463;-38
2022/07/03 09:45:53;;;;;;;0.10;0.10;;;;;;;22.15;52.98;101426.25;5167568;27;20218;-41
2022/07/03 09:51:25;;;;;;;0.10;0.10;;;;;;;22.15;52.98;101423.50;5177892;27;20115;-39
2022/07/03 09:53:58;;;;;;;0.10;0.10;;;;;;;22.16;52.99;101422.41;5160343;27;20130;-39
2022/07/03 09:56:28;;;;;;;0.20;0.20;;;;;;;22.16;53.03;101422.41;5142376;27;20074;-41
2022/07/03 09:59:10;;;;;;;0.10;0.10;;;;;;;22.16;52.91;101428.75;5140484;27;20448;-41
2022/07/03 10:01:38;;;;;;;0.10;0.10;;;;;;;22.16;53.03;101430.72;5140209;27;20129;-39
2022/07/03 10:06:55;;;;;;;0.10;0.10;;;;;;;22.20;52.94;101429.03;5176304;27;20492;-40
2022/07/03 10:09:23;;;;;;;0.10;0.10;;;;;;;22.19;52.87;101425.41;5148604;27;20078;-41
2022/07/03 10:11:49;;;;;;;0.10;0.10;;;;;;;22.18;52.87;101422.91;5168915;27;20096;-41
2022/07/03 10:14:16;;;;;;;0.10;0.10;;;;;;;22.17;52.91;101418.50;5148118;27;20086;-40
2022/07/03 10:16:42;;;;;;;0.10;0.10;;;;;;;22.17;52.95;101426.81;5146917;27;20095;-41
2022/07/03 10:19:13;;;;;;;0.10;0.10;;;;;;;22.16;52.95;101423.22;5168390;27;20585;-39
2022/07/03 10:21:39;;;;;;;0.10;0.10;;;;;;;22.17;53.00;101429.59;5166049;27;20074;-40
2022/07/03 10:24:05;;;;;;;0.10;0.10;;;;;;;22.16;52.90;101423.22;5168413;27;20512;-39
2022/07/03 10:26:32;;;;;;;0.10;0.10;;;;;;;22.17;52.99;101424.03;5169200;27;20046;-41
2022/07/03 10:28:59;;;;;;;0.10;0.10;;;;;;;22.16;52.95;101422.41;5167990;27;20082;-40
2022/07/03 10:31:24;;;;;;;0.10;0.10;;;;;;;22.15;53.04;101426.25;5167092;27;20085;-39
2022/07/03 10:33:52;;;;;;;0.10;0.10;;;;;;;22.16;52.99;101422.41;5165427;27;20046;-41
2022/07/03 10:36:17;;;;;;;0.10;0.10;;;;;;;22.16;52.87;101426.00;5167676;27;20400;-39
2022/07/03 10:38:46;;;;;;;0.10;0.10;;;;;;;22.17;52.89;101419.31;5149299;27;20056;-40
2022/07/03 10:46:52;;;;;;;0.10;0.10;;;;;;;22.14;52.92;101428.22;5148792;27;20077;-40
2022/07/03 10:49:25;;;;;;;0.10;0.10;;;;;;;22.16;53.05;101422.41;5166551;27;20053;-40
2022/07/03 10:52:00;;;;;;;0.10;0.10;;;;;;;22.16;53.07;101425.16;5167644;27;20042;-41
2022/07/03 10:54:28;;;;;;;0.10;0.10;;;;;;;22.16;52.98;101425.16;5132446;27;20488;-41
2022/07/03 11:02:18;;;;;;;0.10;0.10;;;;;;;22.16;53.01;101419.63;5166713;27;20210;-39
2022/07/03 11:07:44;;;;;;;0.10;0.10;;;;;;;22.16;52.88;101408.53;5176816;27;20217;-39
2022/07/03 11:13:03;;;;;;;0.10;0.10;;;;;;;22.16;52.90;101406.56;5164195;27;20128;-40
2022/07/03 11:15:49;;;;;;;0.10;0.10;;;;;;;22.16;53.05;101403.78;5125257;27;20086;-39
2022/07/03 11:18:25;;;;;;;0.10;0.10;;;;;;;22.16;52.87;101406.56;5141719;27;20137;-40
2022/07/03 11:23:30;;;;;;;0.10;0.10;;;;;;;22.16;53.04;101406.56;5173354;27;20201;-40
2022/07/03 11:26:00;;;;;;;0.10;0.10;;;;;;;22.16;53.04;101409.34;5156975;27;20134;-40
2022/07/03 11:28:38;;;;;;;0.10;0.10;;;;;;;22.17;53.03;101401.84;5135659;27;20085;-41
2022/07/03 11:31:17;;;;;;;0.10;0.10;;;;;;;22.16;52.92;101394.66;5156640;27;20070;-41
2022/07/03 11:33:43;;;;;;;0.10;0.10;;;;;;;22.16;53.03;101405.75;5158929;27;20043;-40
2022/07/03 11:36:10;;;;;;;0.10;0.10;;;;;;;22.15;53.05;101399.38;5137156;27;20082;-40
2022/07/03 11:38:36;;;;;;;0.10;0.10;;;;;;;22.16;53.16;101398.25;5157906;27;20171;-41
2022/07/03 11:41:06;;;;;;;0.10;0.10;;;;;;;22.16;52.96;101402.97;5154371;27;20469;-40
2022/07/03 11:43:32;;;;;;;0.10;0.10;;;;;;;22.17;53.00;101404.63;5140520;27;20123;-40
2022/07/03 11:45:58;;;;;;;0.10;0.10;;;;;;;22.16;52.90;101403.78;5125542;27;20151;-41
2022/07/03 11:48:26;;;;;;;0.10;0.10;;;;;;;22.15;52.92;101398.53;5144468;27;20093;-41
2022/07/03 11:50:52;;;;;;;0.10;0.10;;;;;;;22.16;52.92;101394.66;5143384;27;20149;-40
2022/07/03 11:53:29;;;;;;;0.10;0.10;;;;;;;22.16;52.94;101400.19;5142995;27;20091;-41
2022/07/03 11:56:00;;;;;;;0.10;0.10;;;;;;;22.17;52.94;101401.84;5127096;27;20082;-41
2022/07/03 11:58:42;;;;;;;0.10;0.10;;;;;;;22.16;52.97;101395.47;5108641;27;20083;-40
2022/07/03 12:01:09;;;;;;;0.10;0.10;;;;;;;22.17;52.99;101394.34;5120120;27;20047;-39
2022/07/03 12:03:34;;;;;;;0.10;0.10;;;;;;;22.18;53.04;101395.19;5121567;27;20079;-41
2022/07/03 12:06:00;;;;;;;0.10;0.10;;;;;;;22.17;52.97;101388.81;5141018;27;20043;-39
2022/07/03 12:08:29;;;;;;;0.10;0.10;;;;;;;22.16;53.05;101387.16;5142296;27;20476;-40
2022/07/03 12:10:57;;;;;;;0.10;0.10;;;;;;;22.17;52.94;101396.31;5125569;27;20123;-40
2022/07/03 12:13:25;;;;;;;0.10;0.10;;;;;;;22.16;52.97;101384.38;5136298;27;20477;-42
2022/07/03 12:15:51;;;;;;;0.10;0.10;;;;;;;22.15;52.95;101388.28;5123926;27;20074;-41
2022/07/03 12:18:18;;;;;;;0.10;0.10;;;;;;;22.17;52.91;101390.75;5139472;27;20104;-39